Time;durP1;ratioP1;P1;durP2;ratioP2;P2;SDS_P1;SDS_P2;PMS_P1;PMS_P2;Temp;Humidity;BMP_temperature;BMP_pressure;BME280_temperature;BME280_humidity;BME280_pressure;Samples;Min_cycle;Max_cycle;Signal;HPM_P1;HPM_P2
2023/07/11 00:02:09;;;;;;;6.20;2.42;;;;;;;;;;5029419;28;20021;-63
2023/07/11 00:04:35;;;;;;;5.00;2.90;;;;;;;;;;5032623;28;20517;-63
2023/07/11 00:07:01;;;;;;;7.13;2.83;;;;;;;;;;5033824;28;20169;-63
2023/07/11 00:09:27;;;;;;;5.82;2.80;;;;;;;;;;5032039;28;20025;-63
2023/07/11 00:11:52;;;;;;;5.07;2.65;;;;;;;;;;5030752;28;20026;-63
2023/07/11 00:14:17;;;;;;;5.43;2.92;;;;;;;;;;5032664;28;20029;-63
2023/07/11 00:16:43;;;;;;;6.30;2.95;;;;;;;;;;5031930;28;20469;-62
2023/07/11 00:19:10;;;;;;;6.32;3.70;;;;;;;;;;5033690;28;20030;-62
2023/07/11 00:21:35;;;;;;;5.80;3.35;;;;;;;;;;5032942;28;20378;-62
2023/07/11 00:24:03;;;;;;;6.75;3.88;;;;;;;;;;5032728;28;20025;-62
2023/07/11 00:26:32;;;;;;;5.25;2.97;;;;;;;;;;5024333;28;20046;-62
2023/07/11 00:29:00;;;;;;;7.38;2.92;;;;;;;;;;5013627;28;20026;-62
2023/07/11 00:31:26;;;;;;;6.32;2.60;;;;;;;;;;5024496;28;20029;-62
2023/07/11 00:33:51;;;;;;;5.35;2.95;;;;;;;;;;5033222;28;20078;-63
2023/07/11 00:36:16;;;;;;;7.97;3.20;;;;;;;;;;5033480;28;20029;-62
2023/07/11 00:38:41;;;;;;;6.15;3.70;;;;;;;;;;5032502;28;20029;-62
2023/07/11 00:41:07;;;;;;;10.38;4.95;;;;;;;;;;5033419;28;20104;-62
2023/07/11 00:43:33;;;;;;;7.50;4.07;;;;;;;;;;5032017;28;20029;-62
2023/07/11 00:46:04;;;;;;;9.10;4.70;;;;;;;;;;5032303;28;20033;-62
2023/07/11 00:48:33;;;;;;;7.53;4.60;;;;;;;;;;5033074;28;20022;-62
2023/07/11 00:50:59;;;;;;;17.25;4.85;;;;;;;;;;5031971;28;20477;-62
2023/07/11 00:53:25;;;;;;;7.85;4.70;;;;;;;;;;5031436;28;20070;-66
2023/07/11 00:55:50;;;;;;;8.95;4.75;;;;;;;;;;5028163;28;20504;-65
2023/07/11 00:58:17;;;;;;;11.10;5.35;;;;;;;;;;5037144;28;20030;-67
2023/07/11 01:03:46;;;;;;;9.65;4.95;;;;;;;;;;5049767;22;20064;-66
2023/07/11 01:06:13;;;;;;;9.35;4.95;;;;;;;;;;5055953;28;20033;-66
2023/07/11 01:08:38;;;;;;;8.52;4.75;;;;;;;;;;5056901;28;20488;-68
2023/07/11 01:11:04;;;;;;;9.85;5.07;;;;;;;;;;5055537;28;20025;-66
2023/07/11 01:13:29;;;;;;;8.75;5.03;;;;;;;;;;5055148;28;20025;-70
2023/07/11 01:15:54;;;;;;;7.75;4.93;;;;;;;;;;5053191;28;20048;-70
2023/07/11 01:18:19;;;;;;;9.70;4.65;;;;;;;;;;5055813;28;20071;-70
2023/07/11 01:20:45;;;;;;;8.23;4.45;;;;;;;;;;5053829;28;20166;-70
2023/07/11 01:23:10;;;;;;;8.73;4.32;;;;;;;;;;5053480;28;20025;-70
2023/07/11 01:25:36;;;;;;;8.60;4.18;;;;;;;;;;5036539;28;20032;-70
2023/07/11 01:28:01;;;;;;;9.38;4.35;;;;;;;;;;5036922;28;20033;-70
2023/07/11 01:30:26;;;;;;;8.65;4.32;;;;;;;;;;5040344;28;21672;-70
2023/07/11 01:32:51;;;;;;;8.63;4.20;;;;;;;;;;5055223;28;20028;-70
2023/07/11 01:35:17;;;;;;;9.57;4.50;;;;;;;;;;5056703;28;20025;-70
2023/07/11 01:37:42;;;;;;;8.38;4.68;;;;;;;;;;5056393;28;20031;-70
2023/07/11 01:40:08;;;;;;;7.65;4.20;;;;;;;;;;5053633;28;20529;-70
2023/07/11 01:42:34;;;;;;;9.38;4.03;;;;;;;;;;5056458;28;20032;-70
2023/07/11 01:44:59;;;;;;;10.50;4.10;;;;;;;;;;5056049;28;20025;-70
2023/07/11 01:47:24;;;;;;;6.82;3.97;;;;;;;;;;5054994;28;20031;-71
2023/07/11 01:49:49;;;;;;;7.85;4.47;;;;;;;;;;5055375;28;20025;-70
2023/07/11 01:52:16;;;;;;;8.88;4.03;;;;;;;;;;5052245;28;20013;-70
2023/07/11 01:54:42;;;;;;;6.10;3.83;;;;;;;;;;5048894;28;20025;-70
2023/07/11 01:57:07;;;;;;;11.60;3.95;;;;;;;;;;5054948;28;20393;-70
2023/07/11 01:59:33;;;;;;;6.90;3.65;;;;;;;;;;5054800;28;20052;-69
2023/07/11 02:01:58;;;;;;;7.05;3.25;;;;;;;;;;5035658;28;20025;-67
2023/07/11 02:04:23;;;;;;;9.68;3.20;;;;;;;;;;5035091;28;20498;-68
2023/07/11 02:06:49;;;;;;;8.13;3.63;;;;;;;;;;5029597;28;20466;-65
2023/07/11 02:09:15;;;;;;;6.70;3.60;;;;;;;;;;5033288;28;20082;-65
2023/07/11 02:11:40;;;;;;;8.45;3.42;;;;;;;;;;5032117;28;20033;-65
2023/07/11 02:14:05;;;;;;;6.22;3.42;;;;;;;;;;5033242;28;20025;-65
2023/07/11 02:16:31;;;;;;;7.53;3.75;;;;;;;;;;5032791;28;20382;-66
2023/07/11 02:18:56;;;;;;;6.10;3.72;;;;;;;;;;5031121;28;20044;-66
2023/07/11 02:21:21;;;;;;;5.97;3.78;;;;;;;;;;5034856;28;20389;-66
2023/07/11 02:23:46;;;;;;;10.48;3.90;;;;;;;;;;5033649;28;20541;-66
2023/07/11 02:26:11;;;;;;;9.85;3.97;;;;;;;;;;5035367;28;20488;-66
2023/07/11 02:28:37;;;;;;;7.05;4.07;;;;;;;;;;5032819;28;20025;-66
2023/07/11 02:31:02;;;;;;;12.95;4.10;;;;;;;;;;5028737;28;20025;-70
2023/07/11 02:33:27;;;;;;;9.10;4.00;;;;;;;;;;5020345;28;20030;-70
2023/07/11 02:35:53;;;;;;;8.25;4.00;;;;;;;;;;5019760;28;20041;-70
2023/07/11 02:38:19;;;;;;;6.85;3.88;;;;;;;;;;5032451;28;20029;-70
2023/07/11 02:40:44;;;;;;;5.93;3.85;;;;;;;;;;5034314;28;20514;-70
2023/07/11 02:43:09;;;;;;;9.85;4.15;;;;;;;;;;5035081;28;20047;-70
2023/07/11 02:45:34;;;;;;;9.00;4.20;;;;;;;;;;5032390;28;20398;-68
2023/07/11 02:48:00;;;;;;;12.00;4.20;;;;;;;;;;5033804;28;20474;-65
2023/07/11 02:50:25;;;;;;;9.95;4.20;;;;;;;;;;5016507;28;20026;-66
2023/07/11 02:52:50;;;;;;;7.32;3.97;;;;;;;;;;5035022;28;20444;-65
2023/07/11 02:55:16;;;;;;;14.52;4.72;;;;;;;;;;5033678;28;20029;-65
2023/07/11 02:57:42;;;;;;;8.52;4.20;;;;;;;;;;5028943;28;20049;-65
2023/07/11 03:00:08;;;;;;;12.38;4.45;;;;;;;;;;5033680;28;20022;-66
2023/07/11 03:02:34;;;;;;;10.52;4.47;;;;;;;;;;5031091;28;20484;-66
2023/07/11 03:04:59;;;;;;;8.85;4.50;;;;;;;;;;5030856;28;20053;-66
2023/07/11 03:07:24;;;;;;;9.25;3.97;;;;;;;;;;5031350;28;20397;-66
2023/07/11 03:09:49;;;;;;;10.40;4.55;;;;;;;;;;5031414;28;20025;-68
2023/07/11 03:12:15;;;;;;;8.05;3.92;;;;;;;;;;5031736;28;20026;-65
2023/07/11 03:14:40;;;;;;;8.35;4.55;;;;;;;;;;5033811;28;20477;-65
2023/07/11 03:17:05;;;;;;;9.30;3.92;;;;;;;;;;5030831;28;20481;-66
2023/07/11 03:19:30;;;;;;;8.02;3.85;;;;;;;;;;5032735;28;20461;-66
2023/07/11 03:21:58;;;;;;;6.78;4.20;;;;;;;;;;5032978;28;20037;-66
2023/07/11 03:24:24;;;;;;;7.28;3.85;;;;;;;;;;5032194;28;20215;-67
2023/07/11 03:26:49;;;;;;;7.85;3.85;;;;;;;;;;5032544;28;20044;-65
2023/07/11 03:29:14;;;;;;;11.43;3.95;;;;;;;;;;5033634;28;20048;-65
2023/07/11 03:31:40;;;;;;;9.38;4.60;;;;;;;;;;5032194;28;20489;-66
2023/07/11 03:34:05;;;;;;;7.63;4.07;;;;;;;;;;5034151;28;20096;-65
2023/07/11 03:36:31;;;;;;;9.10;4.00;;;;;;;;;;5033266;28;20343;-65
2023/07/11 03:38:56;;;;;;;8.00;4.00;;;;;;;;;;5031173;28;20103;-66
2023/07/11 03:41:21;;;;;;;10.10;3.63;;;;;;;;;;5033054;28;20113;-65
2023/07/11 03:43:47;;;;;;;9.27;3.60;;;;;;;;;;5032205;28;20057;-65
2023/07/11 03:46:12;;;;;;;10.85;3.58;;;;;;;;;;5029477;28;20033;-65
2023/07/11 03:48:37;;;;;;;7.68;3.20;;;;;;;;;;5032033;28;20488;-65
2023/07/11 03:51:02;;;;;;;9.32;3.70;;;;;;;;;;5031141;28;20033;-65
2023/07/11 03:53:27;;;;;;;13.55;3.97;;;;;;;;;;5026863;28;20029;-66
2023/07/11 03:55:53;;;;;;;7.65;3.38;;;;;;;;;;5029193;28;20480;-65
2023/07/11 03:58:18;;;;;;;11.00;3.85;;;;;;;;;;5029166;28;20047;-66
2023/07/11 04:00:45;;;;;;;9.48;3.40;;;;;;;;;;5029434;28;20029;-65
2023/07/11 04:03:10;;;;;;;7.30;3.83;;;;;;;;;;5029732;28;20053;-65
2023/07/11 04:05:35;;;;;;;10.80;3.67;;;;;;;;;;5027463;28;20083;-66
2023/07/11 04:08:00;;;;;;;8.23;3.13;;;;;;;;;;5030354;28;20026;-65
2023/07/11 04:10:26;;;;;;;5.95;3.38;;;;;;;;;;5030212;28;20013;-65
2023/07/11 04:12:51;;;;;;;6.07;3.22;;;;;;;;;;5031325;28;20029;-65
2023/07/11 04:15:16;;;;;;;9.07;4.03;;;;;;;;;;5019365;28;20485;-65
2023/07/11 04:17:41;;;;;;;8.30;3.10;;;;;;;;;;5030561;28;20454;-65
2023/07/11 04:20:07;;;;;;;5.55;3.08;;;;;;;;;;5028859;28;21855;-68
2023/07/11 04:22:33;;;;;;;5.80;3.22;;;;;;;;;;5031345;28;20025;-66
2023/07/11 04:24:58;;;;;;;8.02;3.20;;;;;;;;;;5028387;28;20486;-65
2023/07/11 04:27:24;;;;;;;6.10;3.53;;;;;;;;;;5028147;28;20029;-65
2023/07/11 04:29:49;;;;;;;5.97;3.70;;;;;;;;;;5028667;28;20478;-65
2023/07/11 04:32:14;;;;;;;9.10;3.83;;;;;;;;;;5026789;28;20105;-65
2023/07/11 04:34:40;;;;;;;6.82;3.40;;;;;;;;;;5030201;28;20056;-66
2023/07/11 04:37:06;;;;;;;9.90;3.70;;;;;;;;;;5030082;28;20033;-66
2023/07/11 04:39:31;;;;;;;10.07;3.50;;;;;;;;;;5029692;28;20048;-66
2023/07/11 04:41:56;;;;;;;6.22;3.38;;;;;;;;;;5024992;28;20026;-65
2023/07/11 04:44:22;;;;;;;6.85;3.60;;;;;;;;;;5025312;28;20033;-65
2023/07/11 04:46:47;;;;;;;6.90;3.08;;;;;;;;;;5029770;28;20086;-66
2023/07/11 04:49:12;;;;;;;6.40;2.60;;;;;;;;;;5033250;28;20018;-65
2023/07/11 04:51:37;;;;;;;7.07;3.00;;;;;;;;;;5030941;28;20022;-65
2023/07/11 04:54:02;;;;;;;5.22;2.40;;;;;;;;;;5031341;28;20021;-69
2023/07/11 04:56:28;;;;;;;6.15;2.40;;;;;;;;;;5031174;28;20120;-70
2023/07/11 04:58:53;;;;;;;8.30;2.50;;;;;;;;;;5030204;28;20044;-70
2023/07/11 05:01:18;;;;;;;3.58;2.00;;;;;;;;;;5025781;28;20105;-70
2023/07/11 05:03:47;;;;;;;5.85;2.25;;;;;;;;;;5025509;28;20049;-71
2023/07/11 05:06:12;;;;;;;7.30;2.10;;;;;;;;;;5026098;28;20025;-72
2023/07/11 05:08:38;;;;;;;10.65;2.42;;;;;;;;;;5023213;28;20038;-70
2023/07/11 05:11:03;;;;;;;3.97;1.88;;;;;;;;;;5024447;28;20030;-71
2023/07/11 05:13:29;;;;;;;4.40;1.88;;;;;;;;;;5027862;28;20048;-71
2023/07/11 05:15:58;;;;;;;4.68;2.00;;;;;;;;;;5029395;28;20492;-71
2023/07/11 05:18:23;;;;;;;5.20;2.05;;;;;;;;;;5031921;28;20032;-71
2023/07/11 05:20:53;;;;;;;9.68;2.20;;;;;;;;;;5032852;28;20033;-71
2023/07/11 05:23:18;;;;;;;8.88;2.13;;;;;;;;;;5030251;28;20385;-71
2023/07/11 05:25:43;;;;;;;7.15;2.00;;;;;;;;;;5031081;28;20029;-71
2023/07/11 05:28:08;;;;;;;4.18;1.85;;;;;;;;;;5032575;28;20025;-72
2023/07/11 05:30:37;;;;;;;5.55;1.98;;;;;;;;;;5030392;28;20044;-72
2023/07/11 05:33:02;;;;;;;5.90;1.77;;;;;;;;;;5032626;28;20036;-72
2023/07/11 05:35:27;;;;;;;4.45;1.60;;;;;;;;;;5031520;28;20022;-73
2023/07/11 05:37:52;;;;;;;4.13;1.70;;;;;;;;;;5030981;28;20021;-71
2023/07/11 05:40:17;;;;;;;3.67;1.30;;;;;;;;;;5032780;28;20041;-70
2023/07/11 05:42:43;;;;;;;4.57;1.73;;;;;;;;;;5034719;28;20071;-71
2023/07/11 05:45:08;;;;;;;4.35;1.83;;;;;;;;;;5034104;28;20052;-72
2023/07/11 05:47:33;;;;;;;5.28;1.77;;;;;;;;;;5035357;28;20033;-72
2023/07/11 05:49:59;;;;;;;3.67;1.83;;;;;;;;;;5034867;28;20059;-72
2023/07/11 05:52:24;;;;;;;4.75;1.50;;;;;;;;;;5034470;28;20461;-72
2023/07/11 05:54:49;;;;;;;4.05;1.50;;;;;;;;;;5035154;28;20389;-73
2023/07/11 05:57:14;;;;;;;5.20;1.65;;;;;;;;;;5036685;28;20026;-71
2023/07/11 05:59:40;;;;;;;6.53;1.60;;;;;;;;;;5035181;28;20454;-72
2023/07/11 06:02:05;;;;;;;4.55;1.55;;;;;;;;;;5035023;28;20469;-72
2023/07/11 06:04:31;;;;;;;5.28;1.50;;;;;;;;;;5035859;28;20041;-71
2023/07/11 06:06:56;;;;;;;6.18;1.60;;;;;;;;;;5036780;28;20049;-71
2023/07/11 06:09:21;;;;;;;4.38;1.52;;;;;;;;;;5035207;28;20025;-71
2023/07/11 06:11:48;;;;;;;3.03;1.25;;;;;;;;;;5016403;28;20025;-71
2023/07/11 06:14:14;;;;;;;4.68;1.25;;;;;;;;;;5025196;28;20024;-72
2023/07/11 06:16:40;;;;;;;4.55;1.70;;;;;;;;;;5036036;28;20036;-71
2023/07/11 06:19:05;;;;;;;5.40;1.73;;;;;;;;;;5036153;28;20057;-72
2023/07/11 06:21:31;;;;;;;3.20;1.10;;;;;;;;;;5035782;28;20018;-72
2023/07/11 06:23:56;;;;;;;5.85;1.33;;;;;;;;;;5036171;28;20033;-71
2023/07/11 06:26:21;;;;;;;4.45;1.20;;;;;;;;;;5035592;28;20045;-71
2023/07/11 06:28:47;;;;;;;3.47;1.10;;;;;;;;;;5035151;28;20053;-71
2023/07/11 06:31:12;;;;;;;5.00;1.40;;;;;;;;;;5035436;28;20026;-71
2023/07/11 06:33:38;;;;;;;2.60;1.20;;;;;;;;;;5034242;28;20049;-71
2023/07/11 06:36:04;;;;;;;4.22;1.50;;;;;;;;;;5034347;28;20021;-72
2023/07/11 06:38:29;;;;;;;6.65;1.27;;;;;;;;;;5033852;28;20029;-71
2023/07/11 06:40:55;;;;;;;3.58;1.05;;;;;;;;;;5032328;28;20025;-72
2023/07/11 06:43:22;;;;;;;5.13;1.40;;;;;;;;;;5035428;28;20075;-72
2023/07/11 06:45:47;;;;;;;4.32;1.20;;;;;;;;;;5027125;28;20029;-71
2023/07/11 06:48:17;;;;;;;4.03;1.10;;;;;;;;;;5015554;28;20022;-72
2023/07/11 06:50:45;;;;;;;2.92;1.08;;;;;;;;;;5015153;28;20021;-72
2023/07/11 06:53:10;;;;;;;4.45;1.23;;;;;;;;;;5023245;28;20067;-72
2023/07/11 06:55:36;;;;;;;5.57;1.42;;;;;;;;;;5014831;28;20544;-72
2023/07/11 06:58:01;;;;;;;2.45;1.08;;;;;;;;;;5030072;28;20026;-71
2023/07/11 07:00:26;;;;;;;6.55;1.30;;;;;;;;;;5034739;28;20053;-72
2023/07/11 07:02:52;;;;;;;3.63;1.27;;;;;;;;;;5035110;28;20488;-72
2023/07/11 07:05:17;;;;;;;2.22;0.90;;;;;;;;;;5030674;28;20037;-72
2023/07/11 07:07:42;;;;;;;2.65;0.98;;;;;;;;;;5034698;28;20021;-72
2023/07/11 07:10:08;;;;;;;3.70;1.20;;;;;;;;;;5034538;28;20025;-72
2023/07/11 07:12:33;;;;;;;2.70;1.00;;;;;;;;;;5034498;28;20025;-72
2023/07/11 07:14:58;;;;;;;4.30;1.10;;;;;;;;;;5033313;28;20381;-72
2023/07/11 07:17:23;;;;;;;3.33;1.10;;;;;;;;;;5034378;28;20022;-73
2023/07/11 07:19:49;;;;;;;4.55;1.33;;;;;;;;;;5034223;28;20029;-72
2023/07/11 07:22:15;;;;;;;3.55;1.30;;;;;;;;;;5033631;28;20108;-72
2023/07/11 07:24:40;;;;;;;4.00;1.20;;;;;;;;;;5033292;28;20420;-72
2023/07/11 07:27:06;;;;;;;4.57;1.20;;;;;;;;;;5034450;28;20080;-73
2023/07/11 07:29:31;;;;;;;3.53;1.30;;;;;;;;;;5034682;28;20373;-72
2023/07/11 07:31:56;;;;;;;3.30;1.20;;;;;;;;;;5034649;28;20381;-72
2023/07/11 07:34:21;;;;;;;5.07;1.65;;;;;;;;;;5034495;28;20018;-72
2023/07/11 07:36:47;;;;;;;4.47;0.98;;;;;;;;;;5034101;28;20018;-72
2023/07/11 07:39:12;;;;;;;3.20;1.20;;;;;;;;;;5033357;28;20033;-72
2023/07/11 07:41:37;;;;;;;2.38;1.20;;;;;;;;;;5034008;28;20040;-72
2023/07/11 07:44:02;;;;;;;4.72;1.20;;;;;;;;;;5034112;28;20022;-72
2023/07/11 07:46:28;;;;;;;5.65;1.40;;;;;;;;;;5033983;28;20075;-73
2023/07/11 07:48:53;;;;;;;4.43;1.13;;;;;;;;;;5033816;28;20025;-73
2023/07/11 07:51:19;;;;;;;3.53;1.10;;;;;;;;;;5033903;28;20013;-72
2023/07/11 07:53:44;;;;;;;3.17;1.10;;;;;;;;;;5033261;28;20025;-72
2023/07/11 07:56:09;;;;;;;3.80;1.30;;;;;;;;;;5031866;28;20091;-73
2023/07/11 07:58:35;;;;;;;4.07;1.08;;;;;;;;;;5032700;28;20021;-73
2023/07/11 08:01:00;;;;;;;3.00;1.20;;;;;;;;;;5032594;28;20026;-73
2023/07/11 08:03:25;;;;;;;4.03;1.05;;;;;;;;;;5031305;28;20028;-72
2023/07/11 08:05:54;;;;;;;4.53;1.15;;;;;;;;;;5031517;28;20478;-72
2023/07/11 08:08:21;;;;;;;;;;;;;;;;;;5033810;28;20409;-73
2023/07/11 08:10:46;;;;;;;3.05;1.20;;;;;;;;;;5032299;28;20331;-73
2023/07/11 08:13:12;;;;;;;5.43;1.20;;;;;;;;;;5033607;28;20048;-72
2023/07/11 08:15:37;;;;;;;3.33;1.17;;;;;;;;;;5032696;28;20037;-72
2023/07/11 08:18:02;;;;;;;2.72;1.05;;;;;;;;;;5033433;28;20393;-73
2023/07/11 08:20:27;;;;;;;4.03;1.10;;;;;;;;;;5033622;28;20041;-73
2023/07/11 08:22:54;;;;;;;4.03;1.00;;;;;;;;;;5033416;28;20021;-73
2023/07/11 08:25:19;;;;;;;2.70;1.08;;;;;;;;;;5032595;28;20061;-72
2023/07/11 08:27:44;;;;;;;4.22;1.20;;;;;;;;;;5033233;28;20049;-72
2023/07/11 08:30:10;;;;;;;2.70;1.10;;;;;;;;;;5032861;28;20033;-72
2023/07/11 08:32:38;;;;;;;2.47;1.05;;;;;;;;;;5033632;28;20075;-72
2023/07/11 08:35:03;;;;;;;2.88;1.10;;;;;;;;;;5033544;28;20021;-72
2023/07/11 08:37:29;;;;;;;3.25;1.20;;;;;;;;;;5033512;28;20434;-72
2023/07/11 08:39:54;;;;;;;2.97;1.20;;;;;;;;;;5030175;28;20092;-72
2023/07/11 08:42:43;;;;;;;4.35;1.45;;;;;;;;;;5033220;28;20219;-72
2023/07/11 08:45:14;;;;;;;5.28;1.27;;;;;;;;;;5032491;28;20052;-72
2023/07/11 08:47:43;;;;;;;3.10;1.17;;;;;;;;;;5031090;28;20029;-72
2023/07/11 08:50:13;;;;;;;3.40;1.10;;;;;;;;;;5031541;28;20108;-70
2023/07/11 08:52:39;;;;;;;;;;;;;;;;;;5031381;28;20469;-70
2023/07/11 08:55:10;;;;;;;3.15;1.10;;;;;;;;;;5028945;28;20000;-70
2023/07/11 08:57:37;;;;;;;4.40;1.25;;;;;;;;;;5032992;28;20033;-70
2023/07/11 09:00:08;;;;;;;2.30;1.17;;;;;;;;;;5033231;28;20052;-70
2023/07/11 09:02:51;;;;;;;3.85;1.02;;;;;;;;;;5032129;28;20029;-70
2023/07/11 09:05:29;;;;;;;4.10;1.30;;;;;;;;;;5029636;28;20053;-70
2023/07/11 09:07:56;;;;;;;4.82;1.20;;;;;;;;;;5033264;28;20042;-71
2023/07/11 09:10:48;;;;;;;3.25;1.13;;;;;;;;;;5022440;28;20080;-70
2023/07/11 09:13:19;;;;;;;2.95;1.17;;;;;;;;;;4948284;29;20062;-71
2023/07/11 09:15:50;;;;;;;2.90;1.25;;;;;;;;;;4950883;29;20243;-71
2023/07/11 09:18:34;;;;;;;3.05;1.10;;;;;;;;;;4955211;28;20053;-70
2023/07/11 09:21:18;;;;;;;4.38;1.23;;;;;;;;;;4956602;29;20024;-70
2023/07/11 09:23:43;;;;;;;3.78;1.10;;;;;;;;;;4956440;29;20039;-71
2023/07/11 09:26:11;;;;;;;3.67;1.30;;;;;;;;;;4956447;29;20026;-71
2023/07/11 09:28:37;;;;;;;3.80;1.30;;;;;;;;;;4955776;29;20758;-70
2023/07/11 09:31:06;;;;;;;2.83;1.10;;;;;;;;;;4955570;29;20499;-70
2023/07/11 09:33:33;;;;;;;3.50;1.20;;;;;;;;;;4956389;29;20101;-70
2023/07/11 09:35:58;;;;;;;3.90;1.40;;;;;;;;;;4955475;29;20034;-70
2023/07/11 09:38:44;;;;;;;5.82;1.30;;;;;;;;;;4956112;29;20023;-70
2023/07/11 09:41:09;;;;;;;3.97;1.50;;;;;;;;;;4956176;29;20031;-70
2023/07/11 09:43:35;;;;;;;4.80;1.33;;;;;;;;;;4955520;29;20412;-70
2023/07/11 09:46:00;;;;;;;3.75;1.30;;;;;;;;;;4955849;29;20089;-70
2023/07/11 09:48:36;;;;;;;3.10;1.17;;;;;;;;;;4955958;29;20086;-70
2023/07/11 09:51:07;;;;;;;3.92;1.38;;;;;;;;;;5029712;28;20030;-70
2023/07/11 09:53:32;;;;;;;3.03;1.33;;;;;;;;;;5036378;28;20022;-70
2023/07/11 09:56:02;;;;;;;3.10;1.15;;;;;;;;;;5036215;28;20017;-70
2023/07/11 09:58:29;;;;;;;3.13;1.20;;;;;;;;;;5032994;28;20126;-70
2023/07/11 10:00:57;;;;;;;3.30;1.20;;;;;;;;;;5036121;28;20060;-70
2023/07/11 10:03:25;;;;;;;4.28;1.40;;;;;;;;;;5033077;28;20029;-70
2023/07/11 10:05:52;;;;;;;3.65;1.30;;;;;;;;;;5036100;28;20377;-70
2023/07/11 10:08:27;;;;;;;3.35;1.30;;;;;;;;;;5036115;28;20465;-70
2023/07/11 10:10:53;;;;;;;3.20;1.52;;;;;;;;;;5034532;28;20470;-70
2023/07/11 10:13:20;;;;;;;4.10;1.27;;;;;;;;;;5035728;28;20020;-70
2023/07/11 10:15:51;;;;;;;3.28;1.20;;;;;;;;;;5036022;28;20426;-70
2023/07/11 10:18:20;;;;;;;2.65;1.30;;;;;;;;;;5026732;28;20037;-70
2023/07/11 10:21:05;;;;;;;5.78;1.38;;;;;;;;;;5016131;28;20478;-70
2023/07/11 10:23:31;;;;;;;3.92;1.10;;;;;;;;;;5015343;28;20072;-70
2023/07/11 10:26:08;;;;;;;4.25;1.02;;;;;;;;;;5030346;28;20053;-71
2023/07/11 10:28:35;;;;;;;3.05;1.20;;;;;;;;;;5033008;28;20385;-70
2023/07/11 10:31:19;;;;;;;2.97;1.30;;;;;;;;;;5034481;28;20017;-70
2023/07/11 10:33:51;;;;;;;2.53;1.00;;;;;;;;;;5015926;28;20385;-70
2023/07/11 10:36:21;;;;;;;3.88;1.35;;;;;;;;;;5015833;28;20378;-70
2023/07/11 10:38:54;;;;;;;2.83;1.15;;;;;;;;;;5015468;28;20029;-70
2023/07/11 10:41:35;;;;;;;3.20;1.15;;;;;;;;;;5017644;28;20030;-71
2023/07/11 10:44:02;;;;;;;3.25;1.00;;;;;;;;;;5034208;28;20478;-70
2023/07/11 10:46:45;;;;;;;2.65;1.20;;;;;;;;;;5035332;28;20492;-70
2023/07/11 10:49:14;;;;;;;2.33;1.00;;;;;;;;;;5035186;28;20014;-70
2023/07/11 10:51:45;;;;;;;6.03;1.25;;;;;;;;;;5023168;28;20038;-70
2023/07/11 10:54:20;;;;;;;3.22;1.20;;;;;;;;;;5015981;28;20485;-70
2023/07/11 10:56:49;;;;;;;2.85;1.17;;;;;;;;;;5033792;28;20017;-70
2023/07/11 10:59:16;;;;;;;4.90;1.30;;;;;;;;;;5034931;28;20021;-70
2023/07/11 11:01:41;;;;;;;2.88;1.40;;;;;;;;;;5021845;28;20429;-71
2023/07/11 11:04:15;;;;;;;2.95;1.08;;;;;;;;;;5015042;28;20115;-70
2023/07/11 11:06:51;;;;;;;4.20;1.10;;;;;;;;;;5030185;28;20365;-70
2023/07/11 11:09:35;;;;;;;3.22;1.00;;;;;;;;;;5033842;28;20013;-70
2023/07/11 11:12:26;;;;;;;3.20;1.20;;;;;;;;;;5034927;28;20014;-70
2023/07/11 11:15:14;;;;;;;3.78;1.17;;;;;;;;;;5034682;28;20013;-70
2023/07/11 11:17:42;;;;;;;3.60;1.27;;;;;;;;;;5034870;28;20022;-70
2023/07/11 11:20:13;;;;;;;2.53;1.08;;;;;;;;;;5034417;28;20022;-70
2023/07/11 11:22:47;;;;;;;3.45;1.15;;;;;;;;;;5035480;28;20020;-71
2023/07/11 11:25:22;;;;;;;3.60;1.10;;;;;;;;;;5033799;28;20067;-71
2023/07/11 11:27:48;;;;;;;2.60;1.20;;;;;;;;;;5033760;28;20485;-71
2023/07/11 11:30:25;;;;;;;3.33;1.17;;;;;;;;;;5034682;28;20041;-71
2023/07/11 11:33:10;;;;;;;2.85;1.38;;;;;;;;;;5034621;28;20096;-71
2023/07/11 11:35:41;;;;;;;3.30;1.23;;;;;;;;;;5034125;28;20025;-71
2023/07/11 11:38:25;;;;;;;2.83;1.20;;;;;;;;;;5034439;28;20022;-71
2023/07/11 11:40:53;;;;;;;3.45;1.30;;;;;;;;;;5034021;28;20021;-71
2023/07/11 11:43:19;;;;;;;2.78;1.00;;;;;;;;;;5034041;28;20025;-72
2023/07/11 11:45:45;;;;;;;3.08;1.10;;;;;;;;;;5034110;28;20326;-71
2023/07/11 11:48:16;;;;;;;3.08;1.17;;;;;;;;;;5033242;28;20100;-71
2023/07/11 11:50:42;;;;;;;3.65;1.20;;;;;;;;;;5033920;28;20056;-71
2023/07/11 11:53:19;;;;;;;3.17;1.20;;;;;;;;;;5033952;28;20025;-71
2023/07/11 11:55:58;;;;;;;4.15;1.35;;;;;;;;;;5034020;28;20096;-71
2023/07/11 11:58:26;;;;;;;3.40;1.20;;;;;;;;;;5034167;28;20580;-71
2023/07/11 12:00:54;;;;;;;4.40;1.20;;;;;;;;;;5033945;28;20032;-71
2023/07/11 12:03:25;;;;;;;2.90;1.30;;;;;;;;;;5032390;28;20505;-70
2023/07/11 12:05:52;;;;;;;3.25;1.33;;;;;;;;;;5033844;28;20501;-71
2023/07/11 12:08:31;;;;;;;2.83;1.20;;;;;;;;;;5032862;28;20014;-71
2023/07/11 12:11:06;;;;;;;2.67;1.27;;;;;;;;;;5033203;28;20380;-71
2023/07/11 12:13:32;;;;;;;2.97;1.15;;;;;;;;;;5033298;28;20056;-72
2023/07/11 12:16:01;;;;;;;2.67;1.20;;;;;;;;;;5033760;28;20092;-70
2023/07/11 12:18:28;;;;;;;3.25;1.40;;;;;;;;;;5034032;28;20028;-70
2023/07/11 12:21:12;;;;;;;3.00;1.23;;;;;;;;;;5027077;28;20026;-70
2023/07/11 12:23:39;;;;;;;4.25;1.00;;;;;;;;;;5013784;28;20057;-71
2023/07/11 12:26:08;;;;;;;3.85;1.23;;;;;;;;;;5013857;28;20026;-71
2023/07/11 12:28:34;;;;;;;4.05;1.38;;;;;;;;;;5024652;28;20532;-71
2023/07/11 12:31:03;;;;;;;4.50;1.20;;;;;;;;;;5033873;28;20053;-71
2023/07/11 12:33:36;;;;;;;8.63;1.40;;;;;;;;;;5033600;28;20014;-71
2023/07/11 12:36:16;;;;;;;1.98;0.98;;;;;;;;;;5032745;28;20104;-71
2023/07/11 12:38:47;;;;;;;3.63;1.38;;;;;;;;;;5033274;28;20041;-71
2023/07/11 12:41:32;;;;;;;7.22;1.30;;;;;;;;;;5030257;28;20018;-71
2023/07/11 12:44:00;;;;;;;3.17;1.10;;;;;;;;;;4991346;28;20463;-71
2023/07/11 12:46:31;;;;;;;3.30;1.20;;;;;;;;;;4991637;28;20406;-71
2023/07/11 12:48:57;;;;;;;2.00;1.10;;;;;;;;;;4991160;28;20034;-71
2023/07/11 12:51:22;;;;;;;3.47;1.13;;;;;;;;;;4987978;28;20118;-71
2023/07/11 12:54:11;;;;;;;3.00;1.37;;;;;;;;;;4991654;28;20033;-71
2023/07/11 12:56:41;;;;;;;3.83;1.30;;;;;;;;;;4988222;28;20344;-71
2023/07/11 12:59:17;;;;;;;3.43;1.50;;;;;;;;;;4991678;28;20046;-71
2023/07/11 13:01:43;;;;;;;3.53;1.30;;;;;;;;;;4989918;28;20336;-71
2023/07/11 13:04:08;;;;;;;5.18;1.48;;;;;;;;;;4977198;28;20063;-71
2023/07/11 13:06:34;;;;;;;2.97;1.30;;;;;;;;;;4972126;28;20026;-71
2023/07/11 13:08:59;;;;;;;2.50;1.10;;;;;;;;;;4979826;28;20054;-71
2023/07/11 13:11:26;;;;;;;3.97;1.30;;;;;;;;;;4991483;28;20046;-71
2023/07/11 13:13:52;;;;;;;3.95;1.40;;;;;;;;;;4991611;28;20483;-71
2023/07/11 13:16:20;;;;;;;3.90;1.23;;;;;;;;;;4990354;28;20029;-71
2023/07/11 13:18:47;;;;;;;5.55;1.30;;;;;;;;;;4990281;28;20026;-71
2023/07/11 13:21:13;;;;;;;2.92;1.20;;;;;;;;;;5014075;28;20038;-71
2023/07/11 13:23:39;;;;;;;4.30;1.30;;;;;;;;;;5033010;28;20500;-71
2023/07/11 13:26:09;;;;;;;2.50;1.10;;;;;;;;;;5032938;28;20075;-71
2023/07/11 13:28:36;;;;;;;3.97;1.40;;;;;;;;;;5033242;28;20477;-71
2023/07/11 13:31:03;;;;;;;3.60;1.35;;;;;;;;;;5032636;28;20087;-71
2023/07/11 13:33:31;;;;;;;4.10;1.40;;;;;;;;;;5030764;28;20056;-71
2023/07/11 13:36:00;;;;;;;6.15;1.55;;;;;;;;;;5031815;28;20105;-71
2023/07/11 13:38:43;;;;;;;2.80;0.95;;;;;;;;;;5032634;28;20104;-72
2023/07/11 13:41:21;;;;;;;4.22;1.30;;;;;;;;;;5032925;28;20029;-72
2023/07/11 13:43:47;;;;;;;3.97;1.38;;;;;;;;;;5032492;28;20049;-72
2023/07/11 13:46:13;;;;;;;3.05;1.17;;;;;;;;;;5032125;28;20442;-72
2023/07/11 13:48:41;;;;;;;3.13;1.20;;;;;;;;;;5032837;28;20033;-72
2023/07/11 13:51:14;;;;;;;4.45;1.30;;;;;;;;;;5032466;28;20017;-72
2023/07/11 13:53:44;;;;;;;3.25;1.20;;;;;;;;;;5032522;28;20025;-72
2023/07/11 13:56:09;;;;;;;3.15;1.10;;;;;;;;;;5032688;28;20079;-71
2023/07/11 13:58:34;;;;;;;3.22;1.20;;;;;;;;;;5032710;28;20478;-72
2023/07/11 14:00:59;;;;;;;2.70;1.13;;;;;;;;;;5031746;28;20025;-72
2023/07/11 14:03:25;;;;;;;4.03;1.17;;;;;;;;;;5032565;28;20040;-71
2023/07/11 14:05:52;;;;;;;5.47;1.38;;;;;;;;;;5035882;28;20052;-71
2023/07/11 14:08:18;;;;;;;3.65;1.20;;;;;;;;;;5036271;28;20021;-72
2023/07/11 14:10:44;;;;;;;2.90;1.13;;;;;;;;;;5034227;28;20572;-72
2023/07/11 14:13:27;;;;;;;2.67;1.25;;;;;;;;;;5036103;28;20075;-72
2023/07/11 14:15:53;;;;;;;3.92;1.33;;;;;;;;;;5035880;28;20022;-72
2023/07/11 14:18:19;;;;;;;4.30;1.30;;;;;;;;;;5026682;28;20026;-72
2023/07/11 14:20:44;;;;;;;4.18;1.20;;;;;;;;;;5016356;28;20386;-72
2023/07/11 14:23:23;;;;;;;3.25;1.30;;;;;;;;;;5022009;28;20466;-72
2023/07/11 14:25:48;;;;;;;5.68;1.40;;;;;;;;;;5035817;28;20100;-72
2023/07/11 14:28:14;;;;;;;3.97;1.20;;;;;;;;;;5035501;28;20549;-72
2023/07/11 14:30:40;;;;;;;4.35;1.30;;;;;;;;;;5035806;28;20020;-72
2023/07/11 14:33:14;;;;;;;3.35;1.33;;;;;;;;;;5035722;28;20026;-71
2023/07/11 14:35:39;;;;;;;3.22;1.00;;;;;;;;;;5032423;28;20040;-71
2023/07/11 14:38:09;;;;;;;3.03;1.20;;;;;;;;;;5035099;28;20431;-72
2023/07/11 14:40:34;;;;;;;3.83;1.20;;;;;;;;;;5035383;28;20018;-72
2023/07/11 14:43:00;;;;;;;4.03;1.20;;;;;;;;;;5035287;28;20021;-72
2023/07/11 14:45:26;;;;;;;6.15;1.25;;;;;;;;;;5034608;28;20101;-72
2023/07/11 14:47:51;;;;;;;3.45;1.25;;;;;;;;;;5034429;28;20021;-72
2023/07/11 14:50:24;;;;;;;2.75;1.10;;;;;;;;;;5016475;28;20014;-72